createdAt,value
2017-09-21T00:01:15.964Z,99.90
2017-09-21T00:03:43.534Z,99.90
2017-09-21T00:06:11.157Z,99.90
2017-09-21T00:08:38.775Z,99.90
2017-09-21T00:11:07.126Z,99.90
2017-09-21T00:13:42.062Z,99.90
2017-09-21T00:16:09.619Z,99.90
2017-09-21T00:18:37.150Z,99.90
2017-09-21T00:21:04.736Z,99.90
2017-09-21T00:23:33.291Z,99.90
2017-09-21T00:26:00.864Z,99.90
2017-09-21T00:28:28.436Z,99.90
2017-09-21T00:30:56.092Z,99.90
2017-09-21T00:33:30.606Z,99.90
2017-09-21T00:35:58.278Z,99.90
2017-09-21T00:38:25.806Z,99.90
2017-09-21T00:40:53.396Z,99.90
2017-09-21T00:43:22.898Z,99.90
2017-09-21T00:45:50.521Z,99.90
2017-09-21T00:48:18.862Z,99.90
2017-09-21T00:50:46.489Z,99.90
2017-09-21T00:53:14.047Z,99.90
2017-09-21T00:55:41.621Z,99.90
2017-09-21T00:58:09.145Z,99.90
2017-09-21T01:00:36.784Z,99.90
2017-09-21T01:03:14.768Z,99.90
2017-09-21T01:05:42.365Z,99.90
2017-09-21T01:08:10.739Z,99.90
2017-09-21T01:10:38.351Z,99.90
2017-09-21T01:13:05.920Z,99.90
2017-09-21T01:15:33.536Z,99.90
2017-09-21T01:18:01.845Z,99.90
2017-09-21T01:20:29.435Z,99.90
2017-09-21T01:23:00.323Z,99.90
2017-09-21T01:25:28.625Z,99.90
2017-09-21T01:27:56.227Z,99.90
2017-09-21T01:30:23.809Z,99.90
2017-09-21T01:32:58.124Z,99.90
2017-09-21T01:35:25.748Z,99.90
2017-09-21T01:37:53.369Z,99.90
2017-09-21T01:40:21.769Z,99.90
2017-09-21T01:42:49.350Z,99.90
2017-09-21T01:45:16.967Z,99.90
2017-09-21T01:47:44.529Z,99.90
2017-09-21T01:50:12.905Z,99.90
2017-09-21T01:52:40.434Z,99.90
2017-09-21T01:55:08.062Z,99.90
2017-09-21T01:57:35.615Z,99.90
2017-09-21T02:00:03.243Z,99.90
2017-09-21T02:02:30.893Z,99.90
2017-09-21T02:04:58.801Z,99.90
2017-09-21T02:07:26.423Z,99.90
2017-09-21T02:09:54.066Z,99.90
2017-09-21T02:12:21.670Z,99.90
2017-09-21T02:14:49.234Z,99.90
2017-09-21T02:17:16.801Z,99.90
2017-09-21T02:19:44.397Z,99.90
2017-09-21T02:22:11.997Z,99.90
2017-09-21T02:24:39.600Z,99.90
2017-09-21T02:27:07.193Z,99.90
2017-09-21T02:29:34.752Z,99.90
2017-09-21T02:32:02.353Z,99.90
2017-09-21T02:34:29.885Z,99.90
2017-09-21T02:36:57.530Z,99.90
2017-09-21T02:39:25.099Z,99.90
2017-09-21T02:41:52.768Z,99.90
2017-09-21T02:44:27.426Z,99.90
2017-09-21T02:46:55.762Z,99.90
2017-09-21T02:49:23.370Z,99.90
2017-09-21T02:51:51.729Z,99.90
2017-09-21T02:54:19.257Z,99.90
2017-09-21T02:56:46.879Z,99.90
2017-09-21T02:59:15.220Z,99.90
2017-09-21T03:01:42.777Z,99.90
2017-09-21T03:04:20.443Z,99.90
2017-09-21T03:06:48.036Z,99.90
2017-09-21T03:09:15.558Z,99.90
2017-09-21T03:11:43.167Z,99.90
2017-09-21T03:14:10.745Z,99.90
2017-09-21T03:16:38.301Z,99.90
2017-09-21T03:19:05.942Z,99.90
2017-09-21T03:21:33.565Z,99.90
2017-09-21T03:24:15.170Z,99.90
2017-09-21T03:26:42.737Z,99.90
2017-09-21T03:29:10.236Z,99.90
2017-09-21T03:31:37.772Z,99.90
2017-09-21T03:34:05.382Z,99.90
2017-09-21T03:36:32.921Z,99.90
2017-09-21T03:39:01.236Z,99.90
2017-09-21T03:41:28.834Z,99.90
2017-09-21T03:43:56.433Z,99.90
2017-09-21T03:46:24.766Z,99.90
2017-09-21T03:48:52.312Z,99.90
2017-09-21T03:51:20.091Z,99.90
2017-09-21T03:53:47.631Z,99.90
2017-09-21T03:56:15.172Z,99.90
2017-09-21T03:58:42.748Z,99.90
2017-09-21T04:01:10.328Z,99.90
2017-09-21T04:03:37.868Z,99.90
2017-09-21T04:06:05.481Z,99.90
2017-09-21T04:08:33.049Z,99.90
2017-09-21T04:11:01.416Z,99.90
2017-09-21T04:13:29.000Z,99.90
2017-09-21T04:15:57.317Z,99.90
2017-09-21T04:18:24.854Z,99.90
2017-09-21T04:20:52.397Z,99.90
2017-09-21T04:23:20.695Z,99.90
2017-09-21T04:25:48.324Z,99.90
2017-09-21T04:28:15.832Z,99.90
2017-09-21T04:30:43.426Z,99.90
2017-09-21T04:33:11.028Z,99.90
2017-09-21T04:35:39.356Z,99.90
2017-09-21T04:38:06.875Z,99.90
2017-09-21T04:40:34.753Z,99.90
2017-09-21T04:43:02.281Z,99.90
2017-09-21T04:45:29.830Z,99.90
2017-09-21T04:47:57.354Z,99.90
2017-09-21T04:50:24.870Z,99.90
2017-09-21T04:52:52.367Z,99.90
2017-09-21T04:55:19.900Z,99.90
2017-09-21T04:57:48.176Z,99.90
2017-09-21T05:00:16.498Z,99.90
2017-09-21T05:02:44.019Z,99.90
2017-09-21T05:05:11.612Z,99.90
2017-09-21T05:07:39.124Z,99.90
2017-09-21T05:10:06.652Z,99.90
2017-09-21T05:12:34.161Z,99.90
2017-09-21T05:15:02.528Z,99.90
2017-09-21T05:17:30.808Z,99.90
2017-09-21T05:19:59.095Z,99.90
2017-09-21T05:22:27.363Z,99.90
2017-09-21T05:24:55.690Z,99.90
2017-09-21T05:27:23.235Z,99.90
2017-09-21T05:29:50.767Z,99.90
2017-09-21T05:32:19.028Z,99.90
2017-09-21T05:34:46.591Z,99.90
2017-09-21T05:37:14.905Z,99.90
2017-09-21T05:39:42.451Z,99.90
2017-09-21T05:42:09.996Z,99.90
2017-09-21T05:44:37.557Z,99.90
2017-09-21T05:47:05.136Z,99.90
2017-09-21T05:49:32.657Z,99.90
2017-09-21T05:52:00.992Z,99.90
2017-09-21T05:54:28.620Z,99.90
2017-09-21T05:56:56.932Z,99.90
2017-09-21T05:59:24.474Z,99.90
2017-09-21T06:01:52.986Z,99.90
2017-09-21T06:04:20.519Z,99.90
2017-09-21T06:06:48.784Z,99.90
2017-09-21T06:09:17.084Z,99.90
2017-09-21T06:11:44.595Z,99.90
2017-09-21T06:14:12.120Z,99.90
2017-09-21T06:16:39.604Z,99.90
2017-09-21T06:19:07.121Z,99.90
2017-09-21T06:21:34.612Z,99.90
2017-09-21T06:24:02.130Z,99.90
2017-09-21T06:26:29.622Z,99.90
2017-09-21T06:28:57.136Z,99.90
2017-09-21T06:31:25.404Z,99.90
2017-09-21T06:33:52.920Z,99.90
2017-09-21T06:36:20.420Z,99.90
2017-09-21T06:38:50.177Z,99.90
2017-09-21T06:41:17.768Z,99.90
2017-09-21T06:43:45.607Z,99.90
2017-09-21T06:46:13.163Z,99.90
2017-09-21T06:48:40.689Z,99.90
2017-09-21T06:51:08.968Z,99.90
2017-09-21T06:53:37.867Z,99.90
2017-09-21T06:56:05.947Z,99.90
2017-09-21T06:58:34.084Z,99.90
2017-09-21T07:01:01.631Z,99.90
2017-09-21T07:03:29.185Z,99.90
2017-09-21T07:05:56.776Z,99.90
2017-09-21T07:08:25.128Z,99.90
2017-09-21T07:10:52.677Z,99.90
2017-09-21T07:13:20.228Z,99.90
2017-09-21T07:15:47.736Z,99.90
2017-09-21T07:18:16.087Z,99.90
2017-09-21T07:20:43.615Z,99.90
2017-09-21T07:23:11.154Z,99.90
2017-09-21T07:25:38.736Z,99.90
2017-09-21T07:28:06.259Z,99.90
2017-09-21T07:30:34.547Z,99.90
2017-09-21T07:33:02.844Z,99.90
2017-09-21T07:35:30.378Z,99.90
2017-09-21T07:37:57.932Z,99.90
2017-09-21T07:40:25.533Z,99.90
2017-09-21T07:42:53.072Z,99.90
2017-09-21T07:45:20.637Z,99.90
2017-09-21T07:47:48.178Z,99.90
2017-09-21T07:50:15.783Z,99.90
2017-09-21T07:52:43.292Z,99.90
2017-09-21T07:55:10.814Z,99.90
2017-09-21T07:57:38.325Z,99.90
2017-09-21T08:00:06.634Z,99.90
2017-09-21T08:02:34.158Z,99.90
2017-09-21T08:05:02.479Z,99.90
2017-09-21T08:07:29.988Z,99.90
2017-09-21T08:09:58.298Z,99.90
2017-09-21T08:12:25.821Z,99.90
2017-09-21T08:14:54.128Z,99.90
2017-09-21T08:17:21.651Z,99.90
2017-09-21T08:19:49.973Z,99.90
2017-09-21T08:22:17.496Z,99.90
2017-09-21T08:24:45.034Z,99.90
2017-09-21T08:27:12.561Z,99.90
2017-09-21T08:29:40.121Z,99.90
2017-09-21T08:32:07.647Z,99.90
2017-09-21T08:34:35.181Z,99.90
2017-09-21T08:37:02.692Z,99.90
2017-09-21T08:39:30.226Z,99.90
2017-09-21T08:41:58.557Z,99.90
2017-09-21T08:44:26.123Z,99.90
2017-09-21T08:46:53.701Z,99.90
2017-09-21T08:49:21.282Z,99.90
2017-09-21T08:51:48.804Z,99.90
2017-09-21T08:54:16.341Z,99.90
2017-09-21T08:56:43.862Z,99.90
2017-09-21T08:59:11.400Z,99.90
2017-09-21T09:01:38.930Z,99.90
2017-09-21T09:04:06.470Z,99.90
2017-09-21T09:06:34.012Z,99.90
2017-09-21T09:09:02.345Z,99.90
2017-09-21T09:11:29.934Z,99.90
2017-09-21T09:13:57.603Z,99.90
2017-09-21T09:16:25.170Z,99.90
2017-09-21T09:18:53.514Z,99.90
2017-09-21T09:21:21.077Z,99.90
2017-09-21T09:23:48.635Z,99.90
2017-09-21T09:26:16.144Z,99.90
2017-09-21T09:28:44.446Z,99.90
2017-09-21T09:31:11.961Z,99.90
2017-09-21T09:33:39.493Z,99.90
2017-09-21T09:36:07.006Z,99.90
2017-09-21T09:38:34.533Z,99.90
2017-09-21T09:41:02.045Z,99.90
2017-09-21T09:43:29.577Z,99.90
2017-09-21T09:45:57.113Z,99.90
2017-09-21T09:48:24.667Z,99.90
2017-09-21T09:50:52.187Z,99.90
2017-09-21T09:53:19.715Z,99.90
2017-09-21T09:55:48.005Z,99.90
2017-09-21T09:58:15.674Z,99.90
2017-09-21T10:00:43.189Z,99.90
2017-09-21T10:03:10.737Z,99.90
2017-09-21T10:05:38.359Z,99.90
2017-09-21T10:08:05.945Z,99.90
2017-09-21T10:10:33.484Z,99.90
2017-09-21T10:13:01.051Z,99.90
2017-09-21T10:15:28.648Z,99.90
2017-09-21T10:17:56.193Z,99.90
2017-09-21T10:20:23.751Z,99.40
2017-09-21T10:22:51.287Z,98.60
2017-09-21T10:25:18.842Z,99.30
2017-09-21T10:27:46.421Z,98.70
2017-09-21T10:30:13.950Z,98.50
2017-09-21T10:32:42.291Z,97.70
2017-09-21T10:35:09.838Z,97.70
2017-09-21T10:37:37.428Z,97.40
2017-09-21T10:40:05.721Z,97.20
2017-09-21T10:42:34.090Z,97.20
2017-09-21T10:45:02.400Z,97.70
2017-09-21T10:47:29.962Z,97.60
2017-09-21T10:49:57.514Z,97.20
2017-09-21T10:52:25.091Z,96.90
2017-09-21T10:54:52.636Z,95.90
2017-09-21T10:57:20.179Z,95.80
2017-09-21T10:59:47.754Z,95.40
2017-09-21T11:02:15.284Z,95.10
2017-09-21T11:04:42.800Z,95.40
2017-09-21T11:07:10.344Z,95.70
2017-09-21T11:09:37.959Z,95.20
2017-09-21T11:12:05.512Z,93.80
2017-09-21T11:14:33.075Z,92.40
2017-09-21T11:17:00.624Z,91.80
2017-09-21T11:19:28.154Z,92.60
2017-09-21T11:21:55.691Z,92.40
2017-09-21T11:24:23.236Z,92.60
2017-09-21T11:26:51.547Z,92.00
2017-09-21T11:29:19.862Z,91.80
2017-09-21T11:31:47.424Z,91.80
2017-09-21T11:34:18.959Z,91.60
2017-09-21T11:36:46.506Z,92.40
2017-09-21T11:39:14.066Z,91.50
2017-09-21T11:41:41.651Z,92.80
2017-09-21T11:44:09.205Z,92.80
2017-09-21T11:46:36.750Z,92.10
2017-09-21T11:49:05.189Z,91.80
2017-09-21T11:51:32.772Z,92.50
2017-09-21T11:54:00.328Z,93.00
2017-09-21T11:56:27.930Z,92.30
2017-09-21T11:58:55.528Z,92.50
2017-09-21T12:01:23.127Z,92.40
2017-09-21T12:03:51.727Z,92.20
2017-09-21T12:06:19.285Z,92.70
2017-09-21T12:08:46.885Z,92.40
2017-09-21T12:11:15.213Z,91.60
2017-09-21T12:13:43.912Z,91.60
2017-09-21T12:16:11.454Z,92.00
2017-09-21T12:18:39.175Z,91.60
2017-09-21T12:21:06.777Z,92.40
2017-09-21T12:23:35.716Z,92.50
2017-09-21T12:26:05.355Z,92.60
2017-09-21T12:28:40.767Z,93.10
2017-09-21T12:31:08.436Z,92.60
2017-09-21T12:33:41.102Z,91.70
2017-09-21T12:36:08.691Z,92.10
2017-09-21T12:38:40.453Z,92.20
2017-09-21T12:41:08.263Z,92.40
2017-09-21T12:43:36.893Z,92.10
2017-09-21T12:46:04.510Z,92.10
2017-09-21T12:48:32.035Z,91.90
2017-09-21T12:50:59.589Z,91.50
2017-09-21T12:53:37.993Z,92.00
2017-09-21T12:56:05.548Z,91.90
2017-09-21T12:58:33.215Z,91.90
2017-09-21T13:01:00.869Z,92.40
2017-09-21T13:03:35.515Z,92.20
2017-09-21T13:06:03.132Z,91.40
2017-09-21T13:08:30.741Z,91.30
2017-09-21T13:10:58.308Z,91.00
2017-09-21T13:13:26.657Z,91.90
2017-09-21T13:15:54.219Z,91.70
2017-09-21T13:18:21.794Z,91.10
2017-09-21T13:20:50.277Z,91.50
2017-09-21T13:26:09.805Z,90.90
2017-09-21T13:28:37.383Z,91.80
2017-09-21T13:31:27.200Z,90.50
2017-09-21T13:33:54.877Z,90.20
2017-09-21T13:36:32.305Z,90.00
2017-09-21T13:38:59.849Z,90.00
2017-09-21T13:41:27.379Z,90.30
2017-09-21T13:43:54.896Z,87.50
2017-09-21T13:46:22.433Z,87.70
2017-09-21T13:48:49.936Z,88.20
2017-09-21T13:51:18.277Z,90.80
2017-09-21T13:53:48.859Z,90.70
2017-09-21T13:56:16.445Z,90.60
2017-09-21T13:58:43.972Z,90.80
2017-09-21T14:01:12.265Z,90.60
2017-09-21T14:03:39.793Z,90.60
2017-09-21T14:06:08.132Z,90.30
2017-09-21T14:08:35.629Z,90.20
2017-09-21T14:11:03.950Z,88.60
2017-09-21T14:13:31.502Z,88.50
2017-09-21T14:15:59.908Z,90.30
2017-09-21T14:18:27.453Z,91.00
2017-09-21T14:20:55.363Z,90.60
2017-09-21T14:23:22.889Z,90.50
2017-09-21T14:25:50.423Z,89.00
2017-09-21T14:28:18.148Z,88.40
2017-09-21T14:30:46.450Z,89.20
2017-09-21T14:33:14.909Z,89.10
2017-09-21T14:35:43.205Z,88.00
2017-09-21T14:38:10.772Z,87.80
2017-09-21T14:40:38.310Z,85.20
2017-09-21T14:43:06.617Z,87.50
2017-09-21T14:45:34.158Z,87.40
2017-09-21T14:48:01.656Z,86.80
2017-09-21T14:50:29.198Z,88.70
2017-09-21T14:52:56.715Z,86.80
2017-09-21T14:55:25.013Z,89.10
2017-09-21T14:57:52.573Z,89.00
2017-09-21T15:00:20.145Z,87.80
2017-09-21T15:02:47.704Z,87.00
2017-09-21T15:05:15.323Z,87.60
2017-09-21T15:07:43.616Z,86.00
2017-09-21T15:10:11.190Z,86.00
2017-09-21T15:12:38.726Z,87.60
2017-09-21T15:15:06.306Z,86.50
2017-09-21T15:17:33.843Z,89.20
2017-09-21T15:20:01.472Z,88.30
2017-09-21T15:22:29.058Z,87.80
2017-09-21T15:24:57.363Z,88.40
2017-09-21T15:27:24.905Z,88.30
2017-09-21T15:29:53.192Z,88.10
2017-09-21T15:32:20.737Z,87.30
2017-09-21T15:34:48.251Z,86.40
2017-09-21T15:37:15.812Z,85.60
2017-09-21T15:39:43.335Z,84.80
2017-09-21T15:42:14.425Z,85.80
2017-09-21T15:44:41.933Z,85.70
2017-09-21T15:47:10.195Z,87.20
2017-09-21T15:49:37.709Z,86.70
2017-09-21T15:52:05.237Z,85.50
2017-09-21T15:54:32.764Z,88.10
2017-09-21T15:57:00.307Z,86.00
2017-09-21T15:59:27.830Z,89.70
2017-09-21T16:01:55.362Z,89.50
2017-09-21T16:04:22.884Z,86.90
2017-09-21T16:06:51.177Z,86.60
2017-09-21T16:09:19.121Z,87.30
2017-09-21T16:11:46.685Z,88.60
2017-09-21T16:14:14.264Z,87.70
2017-09-21T16:16:41.921Z,88.90
2017-09-21T16:19:09.449Z,86.20
2017-09-21T16:21:37.024Z,86.70
2017-09-21T16:24:04.599Z,87.60
2017-09-21T16:26:32.230Z,90.00
2017-09-21T16:28:59.782Z,87.50
2017-09-21T16:31:27.415Z,89.30
2017-09-21T16:33:54.952Z,89.90
2017-09-21T16:36:22.541Z,90.30
2017-09-21T16:38:50.063Z,90.90
2017-09-21T16:41:17.618Z,90.40
2017-09-21T16:43:45.182Z,90.50
2017-09-21T16:46:12.765Z,91.20
2017-09-21T16:48:40.282Z,90.70
2017-09-21T16:51:08.074Z,91.10
2017-09-21T16:53:35.613Z,91.50
2017-09-21T16:56:10.084Z,92.30
2017-09-21T16:58:37.601Z,92.20
2017-09-21T17:01:05.166Z,92.70
2017-09-21T17:03:32.717Z,93.20
2017-09-21T17:06:00.317Z,92.80
2017-09-21T17:08:27.871Z,94.80
2017-09-21T17:10:55.445Z,95.20
2017-09-21T17:13:23.112Z,95.90
2017-09-21T17:15:50.700Z,94.50
2017-09-21T17:18:23.997Z,96.70
2017-09-21T17:20:51.578Z,96.20
2017-09-21T17:23:19.200Z,96.80
2017-09-21T17:25:46.729Z,96.90
2017-09-21T17:28:14.245Z,97.10
2017-09-21T17:30:41.785Z,97.60
2017-09-21T17:33:10.086Z,97.90
2017-09-21T17:35:37.897Z,97.90
2017-09-21T17:38:05.474Z,97.60
2017-09-21T17:40:33.052Z,98.40
2017-09-21T17:43:00.610Z,98.20
2017-09-21T17:45:29.018Z,98.50
2017-09-21T17:47:56.545Z,98.60
2017-09-21T17:50:24.923Z,99.20
2017-09-21T17:52:53.226Z,99.20
2017-09-21T17:55:20.854Z,99.20
2017-09-21T17:57:49.182Z,99.50
2017-09-21T18:00:16.792Z,99.50
2017-09-21T18:02:44.340Z,98.50
2017-09-21T18:05:11.884Z,99.30
2017-09-21T18:07:39.408Z,99.70
2017-09-21T18:10:07.880Z,99.90
2017-09-21T18:12:39.903Z,99.80
2017-09-21T18:15:07.465Z,99.90
2017-09-21T18:17:43.269Z,99.90
2017-09-21T18:20:10.833Z,99.90
2017-09-21T18:22:46.889Z,99.90
2017-09-21T18:25:14.414Z,99.90
2017-09-21T18:27:42.716Z,99.90
2017-09-21T18:30:10.328Z,99.90
2017-09-21T18:32:37.869Z,99.90
2017-09-21T18:35:05.495Z,99.90
2017-09-21T18:37:33.091Z,99.90
2017-09-21T18:40:00.656Z,99.90
2017-09-21T18:42:29.048Z,99.90
2017-09-21T18:44:57.413Z,99.90
2017-09-21T18:47:24.984Z,99.90
2017-09-21T18:49:52.544Z,99.90
2017-09-21T18:52:20.071Z,99.90
2017-09-21T18:54:47.654Z,99.90
2017-09-21T18:57:15.254Z,99.90
2017-09-21T18:59:42.858Z,99.90
2017-09-21T19:02:10.477Z,99.90
2017-09-21T19:04:38.139Z,99.90
2017-09-21T19:07:05.707Z,99.90
2017-09-21T19:09:33.325Z,99.90
2017-09-21T19:12:00.885Z,99.90
2017-09-21T19:14:29.205Z,99.90
2017-09-21T19:16:56.763Z,99.90
2017-09-21T19:19:24.407Z,99.90
2017-09-21T19:21:52.010Z,99.90
2017-09-21T19:24:19.600Z,99.90
2017-09-21T19:26:47.940Z,99.90
2017-09-21T19:29:15.512Z,99.90
2017-09-21T19:31:43.074Z,99.90
2017-09-21T19:34:10.636Z,99.90
2017-09-21T19:36:38.337Z,99.90
2017-09-21T19:39:05.912Z,99.90
2017-09-21T19:41:33.575Z,99.90
2017-09-21T19:44:01.194Z,99.90
2017-09-21T19:46:29.582Z,99.90
2017-09-21T19:48:57.926Z,99.90
2017-09-21T19:51:25.508Z,99.90
2017-09-21T19:53:58.098Z,99.90
2017-09-21T19:56:26.499Z,99.90
2017-09-21T19:58:54.166Z,99.90
2017-09-21T20:01:21.829Z,99.90
2017-09-21T20:07:06.412Z,99.90
2017-09-21T20:09:34.160Z,99.90
2017-09-21T20:12:01.785Z,99.90
2017-09-21T20:14:29.369Z,99.90
2017-09-21T20:16:57.710Z,99.90
2017-09-21T20:19:25.275Z,99.90
2017-09-21T20:21:52.822Z,99.90
2017-09-21T20:24:20.389Z,99.90
2017-09-21T20:26:50.245Z,99.90
2017-09-21T20:29:17.858Z,99.90
2017-09-21T20:31:46.466Z,99.90
2017-09-21T20:34:14.434Z,99.90
2017-09-21T20:36:42.050Z,99.90
2017-09-21T20:39:09.735Z,99.90
2017-09-21T20:41:38.098Z,99.90
2017-09-21T20:44:05.721Z,99.90
2017-09-21T20:46:33.352Z,99.90
2017-09-21T20:49:00.961Z,99.90
2017-09-21T20:51:33.912Z,99.90
2017-09-21T20:54:02.602Z,99.90
2017-09-21T20:56:30.206Z,99.90
2017-09-21T20:59:07.160Z,99.90
2017-09-21T21:01:35.001Z,99.90
2017-09-21T21:04:02.827Z,99.90
2017-09-21T21:06:30.674Z,99.90
2017-09-21T21:08:58.579Z,99.90
2017-09-21T21:11:26.370Z,99.90
2017-09-21T21:13:54.227Z,99.90
2017-09-21T21:16:22.056Z,99.90
2017-09-21T21:18:49.867Z,99.90
2017-09-21T21:21:17.649Z,99.90
2017-09-21T21:23:45.482Z,99.90
2017-09-21T21:26:13.385Z,99.90
2017-09-21T21:28:44.019Z,99.90
2017-09-21T21:31:11.872Z,99.90
2017-09-21T21:33:40.627Z,99.90
2017-09-21T21:36:08.446Z,99.90
2017-09-21T21:38:36.261Z,99.90
2017-09-21T21:41:04.171Z,99.90
2017-09-21T21:43:45.953Z,99.90
2017-09-21T21:46:13.850Z,99.90
2017-09-21T21:48:41.599Z,99.90
2017-09-21T21:51:09.476Z,99.90
2017-09-21T21:53:37.141Z,99.90
2017-09-21T21:56:04.957Z,99.90
2017-09-21T21:58:32.665Z,99.90
2017-09-21T22:01:00.365Z,99.90
2017-09-21T22:03:28.063Z,99.90
2017-09-21T22:05:55.886Z,99.90
2017-09-21T22:08:23.592Z,99.90
2017-09-21T22:10:51.270Z,99.90
2017-09-21T22:13:20.400Z,99.90
2017-09-21T22:15:48.063Z,99.90
2017-09-21T22:18:15.792Z,99.90
2017-09-21T22:20:43.519Z,99.90
2017-09-21T22:23:11.180Z,99.90
2017-09-21T22:25:38.913Z,99.90
2017-09-21T22:28:06.583Z,99.90
2017-09-21T22:30:34.285Z,99.90
2017-09-21T22:33:02.117Z,99.90
2017-09-21T22:35:31.165Z,99.90
2017-09-21T22:37:58.995Z,99.90
2017-09-21T22:40:26.646Z,99.90
2017-09-21T22:42:54.398Z,99.90
2017-09-21T22:45:22.120Z,99.90
2017-09-21T22:47:49.862Z,99.90
2017-09-21T22:50:17.652Z,99.90
2017-09-21T22:52:46.420Z,99.90
2017-09-21T22:55:14.195Z,99.90
2017-09-21T22:57:41.935Z,99.90
2017-09-21T23:00:09.651Z,99.90
2017-09-21T23:02:37.459Z,99.90
2017-09-21T23:05:05.196Z,99.90
2017-09-21T23:07:32.853Z,99.90
2017-09-21T23:10:01.558Z,99.90
2017-09-21T23:12:29.296Z,99.90
2017-09-21T23:14:57.137Z,99.90
2017-09-21T23:17:24.959Z,99.90
2017-09-21T23:19:52.680Z,99.90
2017-09-21T23:22:20.404Z,99.90
2017-09-21T23:24:48.876Z,99.90
2017-09-21T23:27:17.612Z,99.90
2017-09-21T23:29:45.325Z,99.90
2017-09-21T23:32:13.056Z,99.90
2017-09-21T23:34:40.785Z,99.90
2017-09-21T23:37:08.643Z,99.90
2017-09-21T23:39:36.431Z,99.90
2017-09-21T23:42:04.108Z,99.90
2017-09-21T23:44:31.945Z,99.90
2017-09-21T23:46:59.733Z,99.90
2017-09-21T23:49:27.631Z,99.90
2017-09-21T23:51:55.486Z,99.90
2017-09-21T23:54:23.325Z,99.90
2017-09-21T23:56:51.128Z,99.90
2017-09-21T23:59:19.143Z,99.90
